createdAt,value
2023-06-29T00:00:00.587Z,78.61
2023-06-29T00:01:03.389Z,78.59
2023-06-29T00:02:05.495Z,76.65
2023-06-29T00:03:07.727Z,77.39
2023-06-29T00:04:10.228Z,78.07
2023-06-29T00:05:12.460Z,77.30
2023-06-29T00:06:15.079Z,77.11
2023-06-29T00:07:17.160Z,77.62
2023-06-29T00:08:20.045Z,77.92
2023-06-29T00:09:24.868Z,78.01
2023-06-29T00:10:26.957Z,77.79
2023-06-29T00:11:29.045Z,77.61
2023-06-29T00:12:31.090Z,78.38
2023-06-29T00:13:33.141Z,77.41
2023-06-29T00:14:35.189Z,77.62
2023-06-29T00:15:37.223Z,78.56
2023-06-29T00:16:39.306Z,78.06
2023-06-29T00:17:48.398Z,78.86
2023-06-29T00:18:55.723Z,77.21
2023-06-29T00:19:58.217Z,77.57
2023-06-29T00:21:05.124Z,77.19
2023-06-29T00:22:13.020Z,78.62
2023-06-29T00:23:15.005Z,77.56
2023-06-29T00:24:16.999Z,78.28
2023-06-29T00:25:19.130Z,78.56
2023-06-29T00:26:21.279Z,78.95
2023-06-29T00:27:23.698Z,78.24
2023-06-29T00:28:25.803Z,77.39
2023-06-29T00:29:27.784Z,77.12
2023-06-29T00:30:29.790Z,76.85
2023-06-29T00:31:31.967Z,77.30
2023-06-29T00:32:34.216Z,76.88
2023-06-29T00:33:36.234Z,77.02
2023-06-29T00:34:38.521Z,76.71
2023-06-29T00:35:40.644Z,77.38
2023-06-29T00:36:43.405Z,76.15
2023-06-29T00:37:45.407Z,76.71
2023-06-29T00:38:47.432Z,76.85
2023-06-29T00:39:52.288Z,76.44
2023-06-29T00:40:54.255Z,76.53
2023-06-29T00:41:56.394Z,76.09
2023-06-29T00:42:58.419Z,76.28
2023-06-29T00:44:01.617Z,77.11
2023-06-29T00:45:06.930Z,77.88
2023-06-29T00:46:09.135Z,79.00
2023-06-29T00:47:11.243Z,77.65
2023-06-29T00:48:13.699Z,78.64
2023-06-29T00:49:15.751Z,78.92
2023-06-29T00:50:18.256Z,78.81
2023-06-29T00:51:20.255Z,78.22
2023-06-29T00:52:22.363Z,77.92
2023-06-29T00:53:24.539Z,78.01
2023-06-29T00:54:26.543Z,77.99
2023-06-29T00:55:28.733Z,77.44
2023-06-29T00:56:32.045Z,77.40
2023-06-29T00:57:34.032Z,77.96
2023-06-29T00:58:36.256Z,78.00
2023-06-29T00:59:38.271Z,78.23
2023-06-29T01:00:40.286Z,76.91
2023-06-29T01:01:42.489Z,77.33
2023-06-29T01:02:44.625Z,77.60
2023-06-29T01:03:46.834Z,77.12
2023-06-29T01:04:49.017Z,77.07
2023-06-29T01:05:52.346Z,76.91
2023-06-29T01:06:58.252Z,77.38
2023-06-29T01:08:06.356Z,76.89
2023-06-29T01:09:09.358Z,76.85
2023-06-29T01:10:11.947Z,76.96
2023-06-29T01:11:14.236Z,77.08
2023-06-29T01:12:17.071Z,77.65
2023-06-29T01:13:19.027Z,77.26
2023-06-29T01:14:21.281Z,77.61
2023-06-29T01:15:23.314Z,77.05
2023-06-29T01:16:25.368Z,77.34
2023-06-29T01:17:28.634Z,77.21
2023-06-29T01:18:31.784Z,78.08
2023-06-29T01:19:33.778Z,77.46
2023-06-29T01:20:35.745Z,77.82
2023-06-29T01:21:40.518Z,77.43
2023-06-29T01:22:54.475Z,77.17
2023-06-29T01:23:56.940Z,77.25
2023-06-29T01:25:01.657Z,77.28
2023-06-29T01:26:09.317Z,78.61
2023-06-29T01:27:13.948Z,78.40
2023-06-29T01:28:15.933Z,78.44
2023-06-29T01:29:25.853Z,77.87
2023-06-29T01:30:29.755Z,77.70
2023-06-29T01:31:31.811Z,77.57
2023-06-29T01:32:36.618Z,78.42
2023-06-29T01:33:38.878Z,78.23
2023-06-29T01:34:40.914Z,78.38
2023-06-29T01:35:43.828Z,78.23
2023-06-29T01:36:46.008Z,78.13
2023-06-29T01:38:00.340Z,78.19
2023-06-29T01:39:03.753Z,77.93
2023-06-29T01:40:10.074Z,78.40
2023-06-29T01:41:12.198Z,77.58
2023-06-29T01:42:14.259Z,78.94
2023-06-29T01:43:17.694Z,78.67
2023-06-29T01:44:20.316Z,78.41
2023-06-29T01:45:22.474Z,79.15
2023-06-29T01:46:24.748Z,78.04
2023-06-29T01:47:26.936Z,77.98
2023-06-29T01:48:28.945Z,78.67
2023-06-29T01:49:30.916Z,78.06
2023-06-29T01:50:32.885Z,78.47
2023-06-29T01:51:34.876Z,78.70
2023-06-29T01:52:36.853Z,78.85
2023-06-29T01:53:38.818Z,79.26
2023-06-29T01:54:40.787Z,79.01
2023-06-29T01:55:43.194Z,79.30
2023-06-29T01:56:45.683Z,78.78
2023-06-29T01:57:47.638Z,78.03
2023-06-29T01:58:49.630Z,78.78
2023-06-29T01:59:51.634Z,78.38
2023-06-29T02:00:53.710Z,78.68
2023-06-29T02:01:56.768Z,78.00
2023-06-29T02:02:58.886Z,78.85
2023-06-29T02:04:00.988Z,79.42
2023-06-29T02:05:03.011Z,78.94
2023-06-29T02:06:05.036Z,78.36
2023-06-29T02:07:07.079Z,78.99
2023-06-29T02:08:09.131Z,78.28
2023-06-29T02:09:11.146Z,78.19
2023-06-29T02:10:13.136Z,78.27
2023-06-29T02:11:15.101Z,77.96
2023-06-29T02:12:17.076Z,78.48
2023-06-29T02:13:19.087Z,78.90
2023-06-29T02:14:21.127Z,79.04
2023-06-29T02:15:23.131Z,78.25
2023-06-29T02:16:25.343Z,78.97
2023-06-29T02:17:27.506Z,78.06
2023-06-29T02:18:29.555Z,78.96
2023-06-29T02:19:31.524Z,79.45
2023-06-29T02:20:33.520Z,79.28
2023-06-29T02:21:35.498Z,78.47
2023-06-29T02:22:37.468Z,79.15
2023-06-29T02:23:39.542Z,79.86
2023-06-29T02:24:41.584Z,79.80
2023-06-29T02:25:43.801Z,79.45
2023-06-29T02:26:46.051Z,80.13
2023-06-29T02:27:48.123Z,79.79
2023-06-29T02:28:50.634Z,79.50
2023-06-29T02:29:52.666Z,79.95
2023-06-29T02:30:54.731Z,79.25
2023-06-29T02:31:56.786Z,79.45
2023-06-29T02:32:58.875Z,79.31
2023-06-29T02:34:00.975Z,80.02
2023-06-29T02:35:02.954Z,80.66
2023-06-29T02:36:05.224Z,79.96
2023-06-29T02:37:07.387Z,79.90
2023-06-29T02:38:09.680Z,80.86
2023-06-29T02:39:11.723Z,81.13
2023-06-29T02:40:14.038Z,80.27
2023-06-29T02:41:16.288Z,80.79
2023-06-29T02:42:18.275Z,79.56
2023-06-29T02:43:20.295Z,80.30
2023-06-29T02:44:22.358Z,80.01
2023-06-29T02:45:24.415Z,80.62
2023-06-29T02:46:26.507Z,80.20
2023-06-29T02:47:29.588Z,80.22
2023-06-29T02:48:31.666Z,79.60
2023-06-29T02:49:33.674Z,80.00
2023-06-29T02:50:35.714Z,79.98
2023-06-29T02:51:37.679Z,80.91
2023-06-29T02:52:39.744Z,80.62
2023-06-29T02:53:41.726Z,79.79
2023-06-29T02:54:43.710Z,80.35
2023-06-29T02:55:45.928Z,79.58
2023-06-29T02:56:57.091Z,79.38
2023-06-29T02:57:59.337Z,79.75
2023-06-29T02:59:01.380Z,80.51
2023-06-29T03:00:04.842Z,80.65
2023-06-29T03:01:06.827Z,80.52
2023-06-29T03:02:08.850Z,80.42
2023-06-29T03:03:11.031Z,80.24
2023-06-29T03:04:13.135Z,79.99
2023-06-29T03:05:15.192Z,79.81
2023-06-29T03:06:17.313Z,80.56
2023-06-29T03:07:19.379Z,80.76
2023-06-29T03:08:21.374Z,80.79
2023-06-29T03:09:23.456Z,80.30
2023-06-29T03:10:25.590Z,80.20
2023-06-29T03:11:34.925Z,80.50
2023-06-29T03:12:36.893Z,80.81
2023-06-29T03:13:38.860Z,80.27
2023-06-29T03:14:40.895Z,80.86
2023-06-29T03:15:44.002Z,79.88
2023-06-29T03:16:46.261Z,80.52
2023-06-29T03:17:48.308Z,80.97
2023-06-29T03:18:50.328Z,80.08
2023-06-29T03:19:52.393Z,80.69
2023-06-29T03:20:55.005Z,80.79
2023-06-29T03:21:57.039Z,80.05
2023-06-29T03:22:59.059Z,80.39
2023-06-29T03:24:01.089Z,81.10
2023-06-29T03:25:03.217Z,80.63
2023-06-29T03:26:05.226Z,80.76
2023-06-29T03:27:07.550Z,79.98
2023-06-29T03:28:12.509Z,80.37
2023-06-29T03:29:14.494Z,79.55
2023-06-29T03:30:16.808Z,80.04
2023-06-29T03:31:18.870Z,80.26
2023-06-29T03:32:20.953Z,80.18
2023-06-29T03:33:22.972Z,79.83
2023-06-29T03:34:24.960Z,79.18
2023-06-29T03:35:26.955Z,79.21
2023-06-29T03:36:28.994Z,79.73
2023-06-29T03:37:34.066Z,79.90
2023-06-29T03:38:36.272Z,79.55
2023-06-29T03:39:38.252Z,79.55
2023-06-29T03:40:43.241Z,80.26
2023-06-29T03:41:45.261Z,79.58
2023-06-29T03:42:47.291Z,79.30
2023-06-29T03:43:49.322Z,80.33
2023-06-29T03:44:51.392Z,79.60
2023-06-29T03:45:53.396Z,80.02
2023-06-29T03:46:55.408Z,80.05
2023-06-29T03:47:57.470Z,79.86
2023-06-29T03:48:59.512Z,79.58
2023-06-29T03:50:05.116Z,80.49
2023-06-29T03:51:07.124Z,79.88
2023-06-29T03:52:09.112Z,79.83
2023-06-29T03:53:11.114Z,80.23
2023-06-29T03:54:13.210Z,80.48
2023-06-29T03:55:15.203Z,79.74
2023-06-29T03:56:17.220Z,80.54
2023-06-29T03:57:19.203Z,79.96
2023-06-29T03:58:21.165Z,79.84
2023-06-29T03:59:23.371Z,79.88
2023-06-29T04:00:25.429Z,80.96
2023-06-29T04:01:27.517Z,80.46
2023-06-29T04:02:29.655Z,80.45
2023-06-29T04:03:32.021Z,80.86
2023-06-29T04:04:34.093Z,80.69
2023-06-29T04:05:36.085Z,80.49
2023-06-29T04:06:38.042Z,80.55
2023-06-29T04:07:40.029Z,80.20
2023-06-29T04:08:42.065Z,80.27
2023-06-29T04:09:44.083Z,80.20
2023-06-29T04:10:46.101Z,79.43
2023-06-29T04:11:48.115Z,79.76
2023-06-29T04:12:50.127Z,80.87
2023-06-29T04:13:52.243Z,80.37
2023-06-29T04:14:54.293Z,81.05
2023-06-29T04:16:04.956Z,79.94
2023-06-29T04:17:07.073Z,79.87
2023-06-29T04:18:09.058Z,79.94
2023-06-29T04:19:11.102Z,79.45
2023-06-29T04:20:13.581Z,79.65
2023-06-29T04:21:15.562Z,79.27
2023-06-29T04:22:17.648Z,78.90
2023-06-29T04:23:21.207Z,78.93
2023-06-29T04:24:23.204Z,80.12
2023-06-29T04:25:25.196Z,79.66
2023-06-29T04:26:32.629Z,79.47
2023-06-29T04:27:35.637Z,79.58
2023-06-29T04:28:38.093Z,80.33
2023-06-29T04:29:40.149Z,80.12
2023-06-29T04:30:42.762Z,79.88
2023-06-29T04:31:44.778Z,80.07
2023-06-29T04:32:47.919Z,80.05
2023-06-29T04:33:49.941Z,79.90
2023-06-29T04:34:51.949Z,80.52
2023-06-29T04:35:54.770Z,80.28
2023-06-29T04:36:58.010Z,80.26
2023-06-29T04:38:00.391Z,80.71
2023-06-29T04:39:02.426Z,80.26
2023-06-29T04:40:08.066Z,80.51
2023-06-29T04:41:10.782Z,80.75
2023-06-29T04:42:14.554Z,80.01
2023-06-29T04:43:16.621Z,80.91
2023-06-29T04:44:22.842Z,80.50
2023-06-29T04:45:25.877Z,80.70
2023-06-29T04:46:34.929Z,79.59
2023-06-29T04:47:37.037Z,79.33
2023-06-29T04:48:39.408Z,80.28
2023-06-29T04:49:45.939Z,80.21
2023-06-29T04:50:48.110Z,79.32
2023-06-29T04:51:50.136Z,79.38
2023-06-29T04:52:55.276Z,79.11
2023-06-29T04:53:57.241Z,79.20
2023-06-29T04:54:59.221Z,79.63
2023-06-29T04:56:02.933Z,80.17
2023-06-29T04:57:05.126Z,80.12
2023-06-29T04:58:07.098Z,80.28
2023-06-29T04:59:09.364Z,79.79
2023-06-29T05:00:12.491Z,80.03
2023-06-29T05:01:14.641Z,79.31
2023-06-29T05:02:16.705Z,79.16
2023-06-29T05:03:18.921Z,79.25
2023-06-29T05:04:20.956Z,79.75
2023-06-29T05:05:25.791Z,77.72
2023-06-29T05:06:27.747Z,78.96
2023-06-29T05:07:29.823Z,79.16
2023-06-29T05:08:31.915Z,79.84
2023-06-29T05:09:33.970Z,79.61
2023-06-29T05:10:35.961Z,79.30
2023-06-29T05:11:37.950Z,79.58
2023-06-29T05:12:39.990Z,79.06
2023-06-29T05:13:41.993Z,78.34
2023-06-29T05:14:44.008Z,78.49
2023-06-29T05:15:49.179Z,78.32
2023-06-29T05:16:51.278Z,78.72
2023-06-29T05:17:54.088Z,79.75
2023-06-29T05:18:56.144Z,79.08
2023-06-29T05:19:58.256Z,78.39
2023-06-29T05:21:00.278Z,78.77
2023-06-29T05:22:02.429Z,78.70
2023-06-29T05:23:04.386Z,78.47
2023-06-29T05:24:06.709Z,78.02
2023-06-29T05:25:09.047Z,78.17
2023-06-29T05:26:11.086Z,77.97
2023-06-29T05:27:13.115Z,77.06
2023-06-29T05:28:15.092Z,76.89
2023-06-29T05:29:17.104Z,77.51
2023-06-29T05:30:19.209Z,77.44
2023-06-29T05:31:21.278Z,77.85
2023-06-29T05:32:23.339Z,77.46
2023-06-29T05:33:25.360Z,78.12
2023-06-29T05:34:27.449Z,77.11
2023-06-29T05:35:29.463Z,77.03
2023-06-29T05:36:31.500Z,77.18
2023-06-29T05:37:34.744Z,77.66
2023-06-29T05:38:36.737Z,75.88
2023-06-29T05:39:38.766Z,76.36
2023-06-29T05:40:40.991Z,75.96
2023-06-29T05:41:43.149Z,76.95
2023-06-29T05:42:45.193Z,76.34
2023-06-29T05:43:47.179Z,75.80
2023-06-29T05:44:49.188Z,76.42
2023-06-29T05:45:51.240Z,75.35
2023-06-29T05:46:53.276Z,74.96
2023-06-29T05:47:56.786Z,75.79
2023-06-29T05:48:58.857Z,75.53
2023-06-29T05:50:00.894Z,75.89
2023-06-29T05:51:02.928Z,76.11
2023-06-29T05:52:05.143Z,76.27
2023-06-29T05:53:07.134Z,76.35
2023-06-29T05:54:12.541Z,75.47
2023-06-29T05:55:14.631Z,75.57
2023-06-29T05:56:16.695Z,75.87
2023-06-29T05:57:18.746Z,75.77
2023-06-29T05:58:22.657Z,75.64
2023-06-29T05:59:24.704Z,75.45
2023-06-29T06:00:26.865Z,75.14
2023-06-29T06:01:29.182Z,75.79
2023-06-29T06:02:31.291Z,75.28
2023-06-29T06:03:34.489Z,75.43
2023-06-29T06:04:36.785Z,75.16
2023-06-29T06:05:38.910Z,74.53
2023-06-29T06:06:41.000Z,75.08
2023-06-29T06:07:43.029Z,75.25
2023-06-29T06:08:45.039Z,73.81
2023-06-29T06:09:47.033Z,74.09
2023-06-29T06:10:49.268Z,74.14
2023-06-29T06:11:51.266Z,74.36
2023-06-29T06:12:53.297Z,73.34
2023-06-29T06:13:55.353Z,71.92
2023-06-29T06:15:00.397Z,72.06
2023-06-29T06:16:02.466Z,69.51
2023-06-29T06:17:04.752Z,66.05
2023-06-29T06:18:07.511Z,64.33
2023-06-29T06:19:11.988Z,64.96
2023-06-29T06:20:14.413Z,67.18
2023-06-29T06:21:16.936Z,66.99
2023-06-29T06:22:18.971Z,66.79
2023-06-29T06:23:21.324Z,64.16
2023-06-29T06:24:23.294Z,64.28
2023-06-29T06:25:25.371Z,65.48
2023-06-29T06:26:27.392Z,64.86
2023-06-29T06:27:29.464Z,64.22
2023-06-29T06:28:31.512Z,64.30
2023-06-29T06:29:33.566Z,65.06
2023-06-29T06:30:35.560Z,66.15
2023-06-29T06:31:37.599Z,65.99
2023-06-29T06:32:42.990Z,64.24
2023-06-29T06:33:46.849Z,60.62
2023-06-29T06:34:51.810Z,53.87
2023-06-29T06:35:53.857Z,47.95
2023-06-29T06:36:55.964Z,43.68
2023-06-29T06:37:57.948Z,39.05
2023-06-29T06:39:00.167Z,35.57
2023-06-29T06:40:02.880Z,36.11
2023-06-29T06:41:04.869Z,37.79
2023-06-29T06:42:07.154Z,37.92
2023-06-29T06:43:09.158Z,39.10
2023-06-29T06:44:11.205Z,40.23
2023-06-29T06:45:17.758Z,42.80
2023-06-29T06:46:19.804Z,41.76
2023-06-29T06:47:22.002Z,38.98
2023-06-29T06:48:24.011Z,37.34
2023-06-29T06:49:26.039Z,34.58
2023-06-29T06:50:28.055Z,33.95
2023-06-29T06:51:30.172Z,33.78
2023-06-29T06:52:32.202Z,35.41
2023-06-29T06:53:34.283Z,32.97
2023-06-29T06:54:36.406Z,31.79
2023-06-29T06:55:38.458Z,30.76
2023-06-29T06:56:40.966Z,32.29
2023-06-29T06:57:45.898Z,35.18
2023-06-29T06:58:47.875Z,37.42
2023-06-29T06:59:49.924Z,37.43
2023-06-29T07:00:54.650Z,39.39
2023-06-29T07:01:56.745Z,41.54
2023-06-29T07:02:59.003Z,43.17
2023-06-29T07:04:01.065Z,44.89
2023-06-29T07:05:03.099Z,46.23
2023-06-29T07:06:05.139Z,47.54
2023-06-29T07:07:09.919Z,45.01
2023-06-29T07:08:11.948Z,46.76
2023-06-29T07:09:14.463Z,46.37
2023-06-29T07:10:16.526Z,46.74
2023-06-29T07:11:18.598Z,47.69
2023-06-29T07:12:20.575Z,48.30
2023-06-29T07:13:22.554Z,49.65
2023-06-29T07:14:24.802Z,49.10
2023-06-29T07:15:26.839Z,48.80
2023-06-29T07:16:28.859Z,47.71
2023-06-29T07:17:31.994Z,46.21
2023-06-29T07:18:36.258Z,46.32
2023-06-29T07:25:05.904Z,52.70
2023-06-29T07:26:07.990Z,50.38
2023-06-29T07:27:10.044Z,50.73
2023-06-29T07:28:13.113Z,49.51
2023-06-29T07:29:15.093Z,50.67
2023-06-29T07:30:17.705Z,51.93
2023-06-29T07:31:23.774Z,53.42
2023-06-29T07:32:25.947Z,53.76
2023-06-29T07:33:33.951Z,55.73
2023-06-29T07:34:36.945Z,57.04
2023-06-29T07:35:39.007Z,58.62
2023-06-29T07:36:41.107Z,56.66
2023-06-29T07:37:43.184Z,52.86
2023-06-29T07:38:45.179Z,56.42
2023-06-29T07:39:47.181Z,55.25
2023-06-29T07:40:50.180Z,52.73
2023-06-29T07:41:52.415Z,52.59
2023-06-29T07:42:54.432Z,50.81
2023-06-29T07:43:56.914Z,50.51
2023-06-29T07:44:58.940Z,51.49
2023-06-29T07:46:03.983Z,51.00
2023-06-29T07:47:06.338Z,51.21
2023-06-29T07:48:09.594Z,51.69
2023-06-29T07:49:11.717Z,52.40
2023-06-29T07:50:13.687Z,50.32
2023-06-29T07:51:15.885Z,50.58
2023-06-29T07:52:18.596Z,52.00
2023-06-29T07:53:20.703Z,51.47
2023-06-29T07:54:22.741Z,51.82
2023-06-29T07:55:24.777Z,53.05
2023-06-29T07:58:39.043Z,49.97
2023-06-29T07:58:53.850Z,50.30
2023-06-29T07:59:59.004Z,51.36
2023-06-29T08:01:01.067Z,51.72
2023-06-29T08:02:03.117Z,52.26
2023-06-29T08:03:05.823Z,52.58
2023-06-29T08:04:08.639Z,52.71
2023-06-29T08:07:23.464Z,56.41
2023-06-29T08:08:28.882Z,56.06
2023-06-29T08:09:30.929Z,55.49
2023-06-29T08:10:32.904Z,53.39
2023-06-29T08:11:34.964Z,53.65
2023-06-29T08:12:36.946Z,52.10
2023-06-29T08:13:38.915Z,52.78
2023-06-29T08:14:40.889Z,56.29
2023-06-29T08:15:43.129Z,56.59
2023-06-29T08:16:45.247Z,57.56
2023-06-29T08:17:47.325Z,57.41
2023-06-29T08:18:49.645Z,56.32
2023-06-29T08:19:51.714Z,52.42
2023-06-29T08:20:53.731Z,53.84
2023-06-29T08:21:56.765Z,51.50
2023-06-29T08:23:01.326Z,51.87
2023-06-29T08:24:03.350Z,49.73
2023-06-29T08:25:05.919Z,51.14
2023-06-29T08:26:07.927Z,52.31
2023-06-29T08:27:10.183Z,52.78
2023-06-29T08:28:12.187Z,52.01
2023-06-29T08:29:14.159Z,51.56
2023-06-29T08:30:16.309Z,52.84
2023-06-29T08:31:20.427Z,52.59
2023-06-29T08:32:22.874Z,50.92
2023-06-29T08:33:25.133Z,47.90
2023-06-29T08:34:27.280Z,48.33
2023-06-29T08:35:29.335Z,48.59
2023-06-29T08:36:33.985Z,47.66
2023-06-29T08:37:36.559Z,49.06
2023-06-29T08:38:39.972Z,48.03
2023-06-29T08:39:42.158Z,49.92
2023-06-29T08:40:46.227Z,51.18
2023-06-29T08:41:48.250Z,55.50
2023-06-29T08:42:51.086Z,54.85
2023-06-29T08:43:53.246Z,53.78
2023-06-29T08:44:55.288Z,48.58
2023-06-29T08:45:57.308Z,49.82
2023-06-29T08:47:00.603Z,53.91
2023-06-29T08:48:02.661Z,54.64
2023-06-29T08:49:06.064Z,53.13
2023-06-29T08:50:09.672Z,52.62
2023-06-29T08:51:11.838Z,49.32
2023-06-29T08:52:17.193Z,49.82
2023-06-29T08:53:25.787Z,46.70
2023-06-29T08:54:29.101Z,46.38
2023-06-29T08:55:31.507Z,48.64
2023-06-29T08:56:33.515Z,46.95
2023-06-29T08:57:36.108Z,47.08
2023-06-29T08:58:38.767Z,47.82
2023-06-29T08:59:41.428Z,45.35
2023-06-29T09:00:43.630Z,46.44
2023-06-29T09:01:45.686Z,46.42
2023-06-29T09:02:48.260Z,46.85
2023-06-29T09:03:50.530Z,46.65
2023-06-29T09:04:52.622Z,44.24
2023-06-29T09:05:57.194Z,47.13
2023-06-29T09:06:59.291Z,43.61
2023-06-29T09:08:01.339Z,44.12
2023-06-29T09:09:03.551Z,48.55
2023-06-29T09:10:06.643Z,43.14
2023-06-29T09:11:08.668Z,44.29
2023-06-29T09:12:11.310Z,44.73
2023-06-29T09:13:13.725Z,45.12
2023-06-29T09:14:15.691Z,44.37
2023-06-29T09:15:20.415Z,39.38
2023-06-29T09:16:22.785Z,40.81
2023-06-29T09:17:24.863Z,40.44
2023-06-29T09:18:29.734Z,41.18
2023-06-29T09:19:31.974Z,40.83
2023-06-29T09:20:37.005Z,43.27
2023-06-29T09:21:39.326Z,41.38
2023-06-29T09:22:42.032Z,41.05
2023-06-29T09:23:45.317Z,41.76
2023-06-29T09:25:01.574Z,40.52
2023-06-29T09:26:08.115Z,38.95
2023-06-29T09:27:10.490Z,37.21
2023-06-29T09:28:13.313Z,36.01
2023-06-29T09:29:15.268Z,36.29
2023-06-29T09:30:19.876Z,36.79
2023-06-29T09:31:22.642Z,36.02
2023-06-29T09:32:24.783Z,38.18
2023-06-29T09:33:26.871Z,37.86
2023-06-29T09:34:28.885Z,38.74
2023-06-29T09:35:30.935Z,39.64
2023-06-29T09:36:33.495Z,38.65
2023-06-29T09:37:36.348Z,37.86
2023-06-29T09:38:38.953Z,37.71
2023-06-29T09:40:02.077Z,36.92
2023-06-29T09:41:04.612Z,39.96
2023-06-29T09:42:07.181Z,42.17
2023-06-29T09:43:15.857Z,41.81
2023-06-29T09:44:23.333Z,37.44
2023-06-29T09:45:29.504Z,35.24
2023-06-29T09:46:31.731Z,36.42
2023-06-29T09:49:53.342Z,35.36
2023-06-29T09:50:55.716Z,35.08
2023-06-29T09:52:04.896Z,35.80
2023-06-29T09:53:10.954Z,34.53
2023-06-29T09:54:14.857Z,35.12
2023-06-29T09:55:17.344Z,37.04
2023-06-29T09:56:22.928Z,35.22
2023-06-29T09:57:24.971Z,36.70
2023-06-29T09:58:30.959Z,35.38
2023-06-29T09:59:33.068Z,35.44
2023-06-29T10:00:35.488Z,35.18
2023-06-29T10:01:37.669Z,33.24
2023-06-29T10:02:42.611Z,34.11
2023-06-29T10:03:45.492Z,33.56
2023-06-29T10:04:47.786Z,35.25
2023-06-29T10:05:50.701Z,33.89
2023-06-29T10:07:06.821Z,33.48
2023-06-29T10:08:09.252Z,33.55
2023-06-29T10:09:13.318Z,34.27
2023-06-29T10:10:16.088Z,31.16
2023-06-29T10:11:18.306Z,32.69
2023-06-29T10:12:20.359Z,36.31
2023-06-29T10:13:22.565Z,34.93
2023-06-29T10:14:24.558Z,33.54
2023-06-29T10:15:26.969Z,34.78
2023-06-29T10:16:28.976Z,33.85
2023-06-29T10:17:36.441Z,30.88
2023-06-29T10:18:42.013Z,30.43
2023-06-29T10:19:44.275Z,28.56
2023-06-29T10:20:46.692Z,27.34
2023-06-29T10:21:54.062Z,27.99
2023-06-29T10:22:56.330Z,25.29
2023-06-29T10:23:58.436Z,26.98
2023-06-29T10:25:01.621Z,26.63
2023-06-29T10:26:03.782Z,24.81
2023-06-29T10:27:06.276Z,25.09
2023-06-29T10:28:08.710Z,24.99
2023-06-29T10:29:11.049Z,24.79
2023-06-29T10:30:13.087Z,23.75
2023-06-29T10:31:18.630Z,24.15
2023-06-29T10:32:36.263Z,22.41
2023-06-29T10:33:51.659Z,23.38
2023-06-29T10:35:06.867Z,24.59
2023-06-29T10:36:09.013Z,29.60
2023-06-29T10:37:11.073Z,30.60
2023-06-29T10:38:17.565Z,33.32
2023-06-29T10:39:44.992Z,34.32
2023-06-29T10:40:48.260Z,32.61
2023-06-29T10:41:50.284Z,31.64
2023-06-29T10:42:53.623Z,30.44
2023-06-29T10:43:56.820Z,30.47
2023-06-29T10:44:58.866Z,32.58
2023-06-29T10:46:01.005Z,36.28
2023-06-29T10:47:04.224Z,28.89
2023-06-29T10:48:07.847Z,29.15
2023-06-29T10:49:30.034Z,30.19
2023-06-29T10:50:38.550Z,29.57
2023-06-29T10:52:02.549Z,30.28
2023-06-29T10:53:18.945Z,29.85
2023-06-29T10:54:26.717Z,32.11
2023-06-29T10:55:32.277Z,27.95
2023-06-29T10:56:34.327Z,27.06
2023-06-29T10:57:36.407Z,26.67
2023-06-29T10:58:38.969Z,26.50
2023-06-29T10:59:41.087Z,25.47
2023-06-29T11:00:43.330Z,26.36
2023-06-29T11:01:45.712Z,24.58
2023-06-29T11:02:50.987Z,24.64
2023-06-29T11:03:53.507Z,26.87
2023-06-29T11:04:55.559Z,24.69
2023-06-29T11:05:58.527Z,25.38
2023-06-29T11:07:09.795Z,26.63
2023-06-29T11:08:11.849Z,28.23
2023-06-29T11:09:14.680Z,26.99
2023-06-29T11:10:16.784Z,26.74
2023-06-29T11:11:18.852Z,28.30
2023-06-29T11:12:20.842Z,28.75
2023-06-29T11:13:22.860Z,26.65
2023-06-29T11:14:24.887Z,27.88
2023-06-29T11:15:28.042Z,29.55
2023-06-29T11:16:32.264Z,31.71
2023-06-29T11:17:37.550Z,34.28
2023-06-29T11:18:39.617Z,35.07
2023-06-29T11:19:46.716Z,36.67
2023-06-29T11:20:48.721Z,36.79
2023-06-29T11:21:54.325Z,35.99
2023-06-29T11:22:58.367Z,36.67
2023-06-29T11:24:00.486Z,36.45
2023-06-29T11:25:04.421Z,34.33
2023-06-29T11:26:08.039Z,30.79
2023-06-29T11:27:10.007Z,29.96
2023-06-29T11:28:15.008Z,28.63
2023-06-29T11:29:17.106Z,29.81
2023-06-29T11:30:19.212Z,29.99
2023-06-29T11:31:21.634Z,29.40
2023-06-29T11:32:24.368Z,29.96
2023-06-29T11:33:34.443Z,28.58
2023-06-29T11:34:37.288Z,29.98
2023-06-29T11:35:43.251Z,27.47
2023-06-29T11:36:59.262Z,30.01
2023-06-29T11:38:07.726Z,32.57
2023-06-29T11:39:10.893Z,31.41
2023-06-29T11:40:22.821Z,33.10
2023-06-29T11:41:24.826Z,33.63
2023-06-29T11:42:26.893Z,33.88
2023-06-29T11:43:31.031Z,32.17
2023-06-29T11:44:33.551Z,31.86
2023-06-29T11:45:35.621Z,30.82
2023-06-29T11:46:37.751Z,34.29
2023-06-29T11:47:39.989Z,35.62
2023-06-29T11:48:55.413Z,35.96
2023-06-29T11:50:01.475Z,35.80
2023-06-29T11:51:03.608Z,38.33
2023-06-29T11:52:06.711Z,37.48
2023-06-29T11:53:11.747Z,37.35
2023-06-29T11:54:13.859Z,36.38
2023-06-29T11:55:16.774Z,37.87
2023-06-29T11:56:27.986Z,32.33
2023-06-29T11:57:33.679Z,32.68
2023-06-29T11:58:35.684Z,33.48
2023-06-29T11:59:39.195Z,33.81
2023-06-29T12:00:41.318Z,29.93
2023-06-29T12:01:46.397Z,31.91
2023-06-29T12:02:51.210Z,28.86
2023-06-29T12:03:53.333Z,30.71
2023-06-29T12:05:01.603Z,33.33
2023-06-29T12:06:04.110Z,35.17
2023-06-29T12:07:06.411Z,34.97
2023-06-29T12:08:10.066Z,36.99
2023-06-29T12:09:12.847Z,38.45
2023-06-29T12:10:20.724Z,38.73
2023-06-29T12:11:23.204Z,39.32
2023-06-29T12:12:25.300Z,41.21
2023-06-29T12:13:27.288Z,44.18
2023-06-29T12:14:33.617Z,41.82
2023-06-29T12:15:36.527Z,41.45
2023-06-29T12:18:53.414Z,34.15
2023-06-29T12:20:09.806Z,33.88
2023-06-29T12:21:13.558Z,39.45
2023-06-29T12:22:18.481Z,34.17
2023-06-29T12:23:23.518Z,36.21
2023-06-29T12:24:26.370Z,37.55
2023-06-29T12:25:28.411Z,38.61
2023-06-29T12:26:31.113Z,39.49
2023-06-29T12:27:33.150Z,38.46
2023-06-29T12:28:35.182Z,39.30
2023-06-29T12:29:41.420Z,38.90
2023-06-29T12:30:44.123Z,38.96
2023-06-29T12:31:46.542Z,37.21
2023-06-29T12:32:49.330Z,37.43
2023-06-29T12:33:51.371Z,35.90
2023-06-29T12:34:53.576Z,34.94
2023-06-29T12:35:55.700Z,34.46
2023-06-29T12:36:57.670Z,37.26
2023-06-29T12:37:59.775Z,39.80
2023-06-29T12:39:01.747Z,40.90
2023-06-29T12:40:05.851Z,39.58
2023-06-29T12:41:07.895Z,41.38
2023-06-29T12:42:10.159Z,40.58
2023-06-29T12:43:12.230Z,43.16
2023-06-29T12:44:14.214Z,43.90
2023-06-29T12:45:16.179Z,44.94
2023-06-29T12:46:18.198Z,44.49
2023-06-29T12:47:20.275Z,42.60
2023-06-29T12:48:22.369Z,47.14
2023-06-29T12:49:27.738Z,45.30
2023-06-29T12:50:30.080Z,44.71
2023-06-29T12:51:33.101Z,45.91
2023-06-29T12:52:35.097Z,44.90
2023-06-29T12:53:39.418Z,45.90
2023-06-29T12:54:41.411Z,47.39
2023-06-29T12:55:43.696Z,48.95
2023-06-29T12:56:46.940Z,51.07
2023-06-29T12:57:49.013Z,52.80
2023-06-29T12:58:51.059Z,52.11
2023-06-29T12:59:53.997Z,49.98
2023-06-29T13:00:56.247Z,50.75
2023-06-29T13:02:05.986Z,49.58
2023-06-29T13:03:12.962Z,52.40
2023-06-29T13:04:16.031Z,52.56
2023-06-29T13:05:18.251Z,53.15
2023-06-29T13:06:20.283Z,55.09
2023-06-29T13:07:24.592Z,55.04
2023-06-29T13:08:27.220Z,56.06
2023-06-29T13:09:32.087Z,56.78
2023-06-29T13:10:37.322Z,55.32
2023-06-29T13:11:39.580Z,54.44
2023-06-29T13:12:42.133Z,53.67
2023-06-29T13:13:44.268Z,54.81
2023-06-29T13:14:47.238Z,54.29
2023-06-29T13:15:49.230Z,56.11
2023-06-29T13:16:51.300Z,57.55
2023-06-29T13:17:56.678Z,57.15
2023-06-29T13:18:58.718Z,56.86
2023-06-29T13:20:00.718Z,55.75
2023-06-29T13:21:02.772Z,57.52
2023-06-29T13:22:06.084Z,57.82
2023-06-29T13:23:08.135Z,59.74
2023-06-29T13:24:11.568Z,57.78
2023-06-29T13:25:13.596Z,60.01
2023-06-29T13:26:15.673Z,57.33
2023-06-29T13:27:17.813Z,51.47
2023-06-29T13:28:21.533Z,50.18
2023-06-29T13:29:23.643Z,52.19
2023-06-29T13:30:25.686Z,53.90
2023-06-29T13:31:27.755Z,56.89
2023-06-29T13:32:32.569Z,55.18
2023-06-29T13:33:34.808Z,47.84
2023-06-29T13:34:36.847Z,54.89
2023-06-29T13:35:41.909Z,52.23
2023-06-29T13:36:44.106Z,51.87
2023-06-29T13:37:46.084Z,45.34
2023-06-29T13:38:48.179Z,47.19
2023-06-29T13:39:50.359Z,51.02
2023-06-29T13:40:52.458Z,46.57
2023-06-29T13:41:54.471Z,50.21
2023-06-29T13:42:59.349Z,52.85
2023-06-29T13:44:01.366Z,53.15
2023-06-29T13:45:03.423Z,52.04
2023-06-29T13:46:05.440Z,51.71